Time;durP1;ratioP1;P1;durP2;ratioP2;P2;SDS_P1;SDS_P2;PMS_P1;PMS_P2;Temp;Humidity;BMP_temperature;BMP_pressure;BME280_temperature;BME280_humidity;BME280_pressure;Samples;Min_cycle;Max_cycle;Signal;HPM_P1;HPM_P2
2022/05/17 00:01:14;;;;;;;31.03;14.63;;;14.80;99.90;;;;;;5071779;28;20329;-80
2022/05/17 00:03:40;;;;;;;9.50;4.60;;;14.80;99.90;;;;;;5071703;28;20978;-79
2022/05/17 00:06:06;;;;;;;36.20;16.70;;;14.90;99.90;;;;;;5036879;28;20576;-80
2022/05/17 00:08:32;;;;;;;11.83;5.70;;;14.80;99.90;;;;;;5071185;28;20478;-79
2022/05/17 00:10:58;;;;;;;12.03;3.50;;;14.70;99.90;;;;;;5071301;28;20948;-80
2022/05/17 00:13:24;;;;;;;5.17;2.63;;;14.50;99.90;;;;;;5052805;28;20492;-79
2022/05/17 00:15:53;;;;;;;10.03;3.37;;;14.40;99.90;;;;;;5070651;28;20175;-79
2022/05/17 00:18:21;;;;;;;8.20;3.07;;;14.30;99.90;;;;;;5070569;28;20206;-79
2022/05/17 00:20:46;;;;;;;6.63;2.70;;;14.20;99.90;;;;;;5070503;28;20826;-79
2022/05/17 00:23:15;;;;;;;8.93;2.70;;;14.40;99.90;;;;;;5052554;28;20445;-80
2022/05/17 00:25:42;;;;;;;8.10;2.57;;;14.50;99.90;;;;;;5070524;28;20648;-80
2022/05/17 00:28:07;;;;;;;6.50;2.40;;;14.60;99.90;;;;;;5070144;28;20417;-80
2022/05/17 00:30:34;;;;;;;8.40;3.00;;;14.60;99.90;;;;;;5052053;28;20436;-79
2022/05/17 00:32:59;;;;;;;14.50;3.67;;;14.50;99.90;;;;;;5070236;28;20207;-80
2022/05/17 00:35:26;;;;;;;6.40;2.73;;;14.70;99.90;;;;;;5035549;28;20428;-80
2022/05/17 00:37:51;;;;;;;9.10;3.27;;;14.80;99.90;;;;;;5069823;28;20184;-80
2022/05/17 00:40:17;;;;;;;8.20;2.90;;;14.90;99.90;;;;;;5069747;28;20422;-80
2022/05/17 00:42:43;;;;;;;6.20;3.50;;;15.00;99.90;;;;;;5051766;28;20216;-80
2022/05/17 00:45:10;;;;;;;6.43;2.17;;;15.00;99.90;;;;;;5051829;28;20417;-80
2022/05/17 00:47:45;;;;;;;6.70;3.20;;;15.00;99.90;;;;;;5069751;28;20191;-80
2022/05/17 00:50:31;;;;;;;11.77;3.27;;;14.90;99.90;;;;;;5068860;28;20474;-80
2022/05/17 00:53:01;;;;;;;8.23;2.77;;;14.80;99.90;;;;;;5051410;28;20476;-79
2022/05/17 00:55:43;;;;;;;6.07;2.27;;;14.90;99.90;;;;;;5051671;28;20821;-79
2022/05/17 00:58:19;;;;;;;10.33;2.33;;;14.90;99.90;;;;;;5071422;28;20413;-80
2022/05/17 01:01:02;;;;;;;5.50;2.70;;;15.00;99.90;;;;;;5070790;28;20512;-80
2022/05/17 01:03:42;;;;;;;12.20;2.80;;;15.00;99.90;;;;;;5070400;28;20517;-79
2022/05/17 01:06:09;;;;;;;3.97;2.97;;;15.00;99.90;;;;;;5053668;28;20455;-80
2022/05/17 01:08:35;;;;;;;8.63;3.07;;;14.90;99.90;;;;;;5035379;28;20465;-80
2022/05/17 01:11:00;;;;;;;7.50;2.87;;;14.70;99.90;;;;;;5035530;28;20458;-80
2022/05/17 01:16:11;;;;;;;11.20;3.20;;;14.70;99.90;;;;;;5070384;28;20190;-80
2022/05/17 01:18:41;;;;;;;5.97;2.73;;;14.70;99.90;;;;;;5034865;28;20507;-81
2022/05/17 01:21:11;;;;;;;10.13;2.93;;;14.70;99.90;;;;;;5051180;28;20424;-79
2022/05/17 01:23:38;;;;;;;7.93;2.83;;;14.70;99.90;;;;;;5069849;28;20597;-79
2022/05/17 01:26:05;;;;;;;10.43;2.83;;;14.60;99.90;;;;;;5069705;28;20786;-79
2022/05/17 01:28:35;;;;;;;5.93;2.90;;;14.50;99.90;;;;;;5069519;28;20418;-80
2022/05/17 01:31:07;;;;;;;3.17;2.57;;;14.60;99.90;;;;;;5069499;28;20796;-80
2022/05/17 01:33:37;;;;;;;5.57;3.30;;;14.70;99.90;;;;;;5052553;28;20470;-81
2022/05/17 01:36:07;;;;;;;12.67;3.50;;;14.70;99.90;;;;;;5051374;28;20425;-80
2022/05/17 01:38:34;;;;;;;5.33;3.10;;;14.70;99.90;;;;;;5051514;28;20424;-80
2022/05/17 01:41:00;;;;;;;8.80;3.13;;;14.60;99.90;;;;;;5051481;28;20417;-80
2022/05/17 01:43:26;;;;;;;3.93;2.83;;;14.50;99.90;;;;;;5069172;28;20461;-80
2022/05/17 01:45:52;;;;;;;5.80;2.40;;;14.60;99.90;;;;;;5050943;28;20774;-80
2022/05/17 01:48:18;;;;;;;6.90;3.00;;;14.60;99.90;;;;;;5069418;28;20409;-80
2022/05/17 01:50:44;;;;;;;3.63;2.87;;;14.60;99.90;;;;;;5068783;28;20183;-79
2022/05/17 01:53:10;;;;;;;15.33;3.33;;;14.40;99.90;;;;;;5033950;28;20480;-80
2022/05/17 01:55:35;;;;;;;4.30;2.60;;;14.40;99.90;;;;;;5069448;28;20788;-80
2022/05/17 01:58:01;;;;;;;6.63;2.87;;;14.50;99.90;;;;;;5050990;28;20406;-80
2022/05/17 02:00:27;;;;;;;9.70;2.80;;;14.50;99.90;;;;;;5068743;28;20418;-80
2022/05/17 02:02:53;;;;;;;8.03;3.53;;;14.50;99.90;;;;;;5050992;28;20315;-80
2022/05/17 02:05:24;;;;;;;4.63;2.87;;;14.50;99.90;;;;;;5050933;28;20197;-80
2022/05/17 02:07:50;;;;;;;8.13;3.20;;;14.50;99.90;;;;;;5069326;28;20265;-80
2022/05/17 02:10:25;;;;;;;4.03;3.00;;;14.50;99.90;;;;;;5050700;28;20437;-80
2022/05/17 02:12:54;;;;;;;6.70;2.93;;;14.40;99.90;;;;;;5035555;28;20567;-80
2022/05/17 02:15:20;;;;;;;8.33;3.13;;;14.30;99.90;;;;;;5051543;28;20413;-80
2022/05/17 02:17:46;;;;;;;6.40;2.70;;;14.20;99.90;;;;;;5068930;28;20902;-80
2022/05/17 02:20:11;;;;;;;7.07;3.10;;;14.10;99.90;;;;;;5068763;28;20405;-80
2022/05/17 02:22:37;;;;;;;9.60;2.93;;;14.00;99.90;;;;;;5068893;28;20206;-80
2022/05/17 02:25:04;;;;;;;6.17;2.70;;;14.10;99.90;;;;;;5068867;28;20183;-79
2022/05/17 02:27:29;;;;;;;8.23;3.00;;;14.00;99.90;;;;;;5068751;28;20265;-80
2022/05/17 02:29:55;;;;;;;6.50;3.00;;;14.10;99.90;;;;;;5068471;28;20461;-80
2022/05/17 02:32:21;;;;;;;10.13;3.63;;;14.10;99.90;;;;;;5050313;28;20211;-80
2022/05/17 02:34:47;;;;;;;9.47;3.50;;;14.00;99.90;;;;;;5068433;28;20932;-79
2022/05/17 02:37:15;;;;;;;14.67;3.60;;;13.90;99.90;;;;;;5068644;28;20207;-80
2022/05/17 02:39:41;;;;;;;6.10;3.30;;;14.00;99.90;;;;;;5034142;28;20424;-79
2022/05/17 02:42:09;;;;;;;10.43;3.40;;;14.00;99.90;;;;;;5068543;28;20483;-79
2022/05/17 02:44:35;;;;;;;12.63;3.93;;;14.00;99.90;;;;;;5050518;28;20821;-80
2022/05/17 02:47:01;;;;;;;11.13;3.70;;;13.90;99.90;;;;;;5068804;28;20420;-79
2022/05/17 02:49:26;;;;;;;14.17;3.60;;;13.80;99.90;;;;;;5068495;28;20413;-80
2022/05/17 02:51:54;;;;;;;10.23;3.03;;;13.70;99.90;;;;;;5050200;28;20199;-79
2022/05/17 02:54:20;;;;;;;3.93;2.97;;;13.70;99.90;;;;;;5033853;28;20299;-79
2022/05/17 02:56:46;;;;;;;16.83;3.90;;;13.70;99.90;;;;;;5068219;28;20414;-80
2022/05/17 02:59:18;;;;;;;5.87;3.10;;;13.70;99.90;;;;;;5050213;28;20413;-79
2022/05/17 03:01:44;;;;;;;5.43;3.13;;;13.70;99.90;;;;;;5068289;28;20193;-79
2022/05/17 03:04:13;;;;;;;6.00;3.20;;;13.70;99.90;;;;;;5033344;28;20425;-79
2022/05/17 03:06:39;;;;;;;7.80;3.30;;;13.70;99.90;;;;;;5050482;28;20439;-80
2022/05/17 03:09:05;;;;;;;6.10;3.57;;;13.60;99.90;;;;;;5067949;28;20425;-78
2022/05/17 03:11:31;;;;;;;8.57;3.63;;;13.70;99.90;;;;;;5049683;28;21541;-80
2022/05/17 03:13:56;;;;;;;6.43;3.60;;;13.80;99.90;;;;;;5020399;28;20217;-80
2022/05/17 03:16:29;;;;;;;10.87;3.07;;;13.90;99.90;;;;;;5071543;28;20179;-79
2022/05/17 03:18:54;;;;;;;7.97;4.60;;;14.00;99.90;;;;;;5071431;28;20159;-79
2022/05/17 03:21:20;;;;;;;5.77;2.80;;;14.00;99.90;;;;;;5036739;28;20422;-79
2022/05/17 03:23:45;;;;;;;5.50;3.30;;;14.00;99.90;;;;;;5071385;28;20186;-79
2022/05/17 03:26:11;;;;;;;7.93;3.60;;;14.00;99.90;;;;;;5036513;28;20194;-79
2022/05/17 03:28:37;;;;;;;7.83;3.93;;;13.90;99.90;;;;;;5053060;28;20191;-79
2022/05/17 03:31:10;;;;;;;10.93;3.63;;;13.90;99.90;;;;;;5053080;28;20607;-79
2022/05/17 03:33:37;;;;;;;5.80;3.13;;;13.80;99.90;;;;;;5071064;28;20871;-79
2022/05/17 03:36:04;;;;;;;8.90;4.03;;;13.80;99.90;;;;;;5071666;28;20417;-79
2022/05/17 03:38:29;;;;;;;6.07;3.87;;;13.80;99.90;;;;;;5071502;28;20946;-80
2022/05/17 03:40:58;;;;;;;9.03;4.30;;;13.80;99.90;;;;;;5071342;28;20455;-79
2022/05/17 03:43:24;;;;;;;9.53;3.87;;;13.80;99.90;;;;;;5053299;28;20218;-79
2022/05/17 03:45:50;;;;;;;8.40;3.80;;;13.90;99.90;;;;;;5053242;28;20428;-79
2022/05/17 03:48:16;;;;;;;8.40;4.00;;;13.80;99.90;;;;;;5052957;28;20425;-80
2022/05/17 03:50:42;;;;;;;8.80;3.50;;;13.80;99.90;;;;;;5052955;28;20187;-80
2022/05/17 03:53:08;;;;;;;12.27;3.70;;;13.90;99.90;;;;;;5036481;28;20264;-80
2022/05/17 03:55:34;;;;;;;11.03;3.80;;;14.00;99.90;;;;;;5071648;28;21150;-80
2022/05/17 03:58:00;;;;;;;5.70;4.07;;;13.80;99.90;;;;;;5052899;28;20425;-79
2022/05/17 04:00:26;;;;;;;23.60;3.93;;;13.90;99.90;;;;;;5052855;28;20262;-79
2022/05/17 04:02:51;;;;;;;7.63;3.60;;;14.00;99.90;;;;;;5071082;28;20209;-80
2022/05/17 04:05:18;;;;;;;8.93;4.03;;;13.80;99.90;;;;;;5052577;28;20425;-80
2022/05/17 04:07:44;;;;;;;11.13;5.07;;;13.80;99.90;;;;;;5070940;28;20675;-80
2022/05/17 04:10:12;;;;;;;4.80;3.50;;;13.70;99.90;;;;;;5052570;28;20425;-79
2022/05/17 04:12:38;;;;;;;6.93;4.17;;;13.80;99.90;;;;;;5070444;28;20787;-80
2022/05/17 04:15:06;;;;;;;10.90;4.20;;;13.70;99.90;;;;;;5070549;28;20418;-81
2022/05/17 04:17:33;;;;;;;4.60;3.57;;;13.60;99.90;;;;;;5052290;28;20428;-80
2022/05/17 04:19:59;;;;;;;6.70;3.87;;;13.60;99.90;;;;;;5070767;28;20504;-79
2022/05/17 04:22:25;;;;;;;7.30;4.20;;;13.60;99.90;;;;;;5070563;28;20518;-80
2022/05/17 04:24:59;;;;;;;5.50;3.90;;;13.60;99.90;;;;;;5070255;28;20765;-80
2022/05/17 04:27:25;;;;;;;9.80;3.67;;;13.60;99.90;;;;;;5070763;28;20910;-79
2022/05/17 04:29:51;;;;;;;7.37;3.77;;;13.60;99.90;;;;;;5070276;28;20938;-79
2022/05/17 04:32:17;;;;;;;5.43;4.10;;;13.60;99.90;;;;;;5070102;28;20437;-79
2022/05/17 04:34:42;;;;;;;9.33;4.47;;;13.70;99.90;;;;;;5070277;28;20171;-80
2022/05/17 04:37:08;;;;;;;9.93;3.67;;;13.70;99.90;;;;;;5052269;28;20183;-80
2022/05/17 04:39:34;;;;;;;7.60;4.20;;;13.70;99.90;;;;;;5052443;28;20194;-79
2022/05/17 04:42:00;;;;;;;5.57;4.27;;;13.80;99.90;;;;;;5052011;28;20477;-79
2022/05/17 04:44:26;;;;;;;12.80;5.37;;;13.80;99.90;;;;;;5051904;28;20209;-80
2022/05/17 04:46:52;;;;;;;10.90;5.40;;;13.80;99.90;;;;;;5051790;28;20483;-79
2022/05/17 04:49:18;;;;;;;6.30;4.20;;;13.90;99.90;;;;;;5070119;28;20426;-80
2022/05/17 04:51:44;;;;;;;7.33;4.67;;;14.00;99.90;;;;;;5069929;28;20438;-80
2022/05/17 04:54:10;;;;;;;7.60;4.00;;;14.00;99.90;;;;;;5051805;28;20465;-80
2022/05/17 04:56:36;;;;;;;6.63;4.40;;;14.10;99.90;;;;;;5069698;28;20459;-80
2022/05/17 04:59:03;;;;;;;5.87;4.63;;;14.20;99.90;;;;;;5069792;28;20421;-80
2022/05/17 05:01:31;;;;;;;8.97;4.60;;;14.20;99.90;;;;;;5069824;28;20428;-80
2022/05/17 05:03:58;;;;;;;11.43;4.80;;;14.30;99.90;;;;;;5035190;28;20434;-80
2022/05/17 05:06:23;;;;;;;12.50;5.23;;;14.40;99.90;;;;;;5069546;28;20429;-80
2022/05/17 05:08:49;;;;;;;8.77;4.30;;;14.50;99.90;;;;;;5070065;28;20879;-80
2022/05/17 05:11:15;;;;;;;8.07;4.80;;;14.60;99.90;;;;;;5034842;28;20656;-80
2022/05/17 05:13:41;;;;;;;9.03;4.13;;;14.60;99.90;;;;;;5069976;28;20213;-80
2022/05/17 05:16:14;;;;;;;8.73;5.40;;;14.70;99.90;;;;;;5034817;28;20190;-80
2022/05/17 05:18:40;;;;;;;8.50;5.37;;;14.70;99.90;;;;;;5069384;28;20933;-80
2022/05/17 05:21:10;;;;;;;13.40;4.90;;;14.70;99.90;;;;;;5051272;28;20799;-80
2022/05/17 05:23:37;;;;;;;8.63;4.77;;;14.80;99.90;;;;;;5050895;28;20441;-80
2022/05/17 05:26:03;;;;;;;19.77;5.07;;;14.90;99.90;;;;;;5069165;28;20875;-81
2022/05/17 05:28:29;;;;;;;7.97;4.23;;;14.90;99.90;;;;;;5069267;28;20471;-81
2022/05/17 05:30:56;;;;;;;8.63;4.57;;;15.00;99.90;;;;;;5051013;28;20508;-81
2022/05/17 05:33:22;;;;;;;11.27;4.83;;;15.10;99.90;;;;;;5050919;28;20495;-80
2022/05/17 05:35:48;;;;;;;8.27;4.10;;;15.10;99.90;;;;;;5068643;28;20418;-80
2022/05/17 05:38:14;;;;;;;9.50;3.50;;;15.30;99.90;;;;;;5068988;28;20886;-81
2022/05/17 05:40:41;;;;;;;7.27;3.80;;;15.40;99.90;;;;;;5051069;28;20430;-80
2022/05/17 05:43:07;;;;;;;8.00;4.00;;;15.60;99.90;;;;;;5050627;28;20498;-80
2022/05/17 05:45:33;;;;;;;7.80;3.40;;;15.90;99.90;;;;;;5068959;28;20936;-80
2022/05/17 05:47:59;;;;;;;6.20;4.17;;;16.00;99.90;;;;;;5034273;28;20425;-80
2022/05/17 05:50:25;;;;;;;12.33;3.70;;;16.10;99.90;;;;;;5034165;28;20193;-80
2022/05/17 05:52:50;;;;;;;14.20;3.63;;;16.20;99.90;;;;;;5068487;28;20594;-80
2022/05/17 05:55:21;;;;;;;9.43;4.00;;;16.40;99.90;;;;;;5050734;28;20992;-80
2022/05/17 05:57:48;;;;;;;10.27;3.77;;;16.50;99.90;;;;;;5050592;28;20241;-80
2022/05/17 06:00:16;;;;;;;13.10;4.93;;;16.60;99.90;;;;;;5050510;28;20911;-80
2022/05/17 06:02:42;;;;;;;6.80;4.10;;;16.70;99.90;;;;;;5068929;28;20439;-80
2022/05/17 06:05:08;;;;;;;6.00;4.00;;;16.80;99.90;;;;;;5050199;28;20462;-79
2022/05/17 06:07:35;;;;;;;9.50;3.97;;;16.90;99.90;;;;;;5068317;28;20239;-80
2022/05/17 06:10:03;;;;;;;10.90;4.10;;;17.00;99.90;;;;;;5069143;28;20502;-80
2022/05/17 06:12:28;;;;;;;6.63;3.80;;;17.10;99.90;;;;;;5034113;28;20535;-80
2022/05/17 06:14:54;;;;;;;8.23;4.23;;;17.30;99.90;;;;;;5050532;28;20859;-80
2022/05/17 06:17:24;;;;;;;5.53;4.30;;;17.50;99.90;;;;;;5050966;28;20176;-80
2022/05/17 06:19:50;;;;;;;8.77;4.10;;;17.60;99.90;;;;;;5050786;28;20182;-80
2022/05/17 06:22:16;;;;;;;7.30;4.10;;;17.70;99.90;;;;;;5068935;28;20937;-80
2022/05/17 06:24:42;;;;;;;7.60;3.80;;;17.80;99.90;;;;;;5050750;28;20424;-80
2022/05/17 06:27:07;;;;;;;6.20;3.57;;;18.00;99.90;;;;;;5036334;28;20178;-80
2022/05/17 06:29:33;;;;;;;6.33;3.53;;;18.10;99.90;;;;;;5071772;28;20238;-79
2022/05/17 06:31:58;;;;;;;4.73;3.80;;;18.20;99.90;;;;;;5055137;28;20265;-80
2022/05/17 06:34:24;;;;;;;13.13;4.63;;;18.30;99.90;;;;;;5073017;28;20826;-79
2022/05/17 06:36:50;;;;;;;10.40;4.13;;;18.40;99.90;;;;;;5072622;28;20179;-80
2022/05/17 06:39:15;;;;;;;7.73;4.40;;;18.50;99.90;;;;;;5072226;28;20187;-80
2022/05/17 06:41:41;;;;;;;8.30;4.47;;;18.60;99.90;;;;;;5072458;28;20804;-79
2022/05/17 06:44:07;;;;;;;9.40;4.67;;;18.60;99.90;;;;;;5037792;28;20676;-80
2022/05/17 06:46:33;;;;;;;12.10;5.67;;;18.70;99.90;;;;;;5036840;28;20183;-80
2022/05/17 06:48:58;;;;;;;15.90;5.70;;;18.80;99.90;;;;;;5072832;28;20181;-80
2022/05/17 06:51:24;;;;;;;6.27;4.40;;;19.00;99.90;;;;;;5054326;28;20431;-80
2022/05/17 06:53:50;;;;;;;13.13;5.30;;;19.00;99.90;;;;;;5072828;28;20222;-80
2022/05/17 06:56:15;;;;;;;10.50;5.50;;;19.10;99.90;;;;;;5054959;28;20187;-80
2022/05/17 06:58:41;;;;;;;9.50;4.77;;;19.20;99.90;;;;;;5072721;28;20583;-80
2022/05/17 07:01:08;;;;;;;10.73;5.13;;;19.20;99.90;;;;;;5072595;28;20548;-80
2022/05/17 07:03:34;;;;;;;6.10;5.27;;;19.30;99.90;;;;;;5055021;28;20205;-80
2022/05/17 07:05:59;;;;;;;6.10;4.70;;;19.30;99.90;;;;;;5072827;28;20432;-79
2022/05/17 07:08:25;;;;;;;6.20;5.20;;;19.30;99.90;;;;;;5072518;28;20186;-80
2022/05/17 07:13:34;;;;;;;10.90;5.30;;;19.40;99.90;;;;;;5057648;28;20256;-80
2022/05/17 07:16:00;;;;;;;5.13;4.63;;;19.50;99.90;;;;;;5054699;28;20449;-80
2022/05/17 07:18:28;;;;;;;9.47;5.37;;;19.60;99.90;;;;;;5054767;28;20186;-80
2022/05/17 07:20:55;;;;;;;6.43;5.00;;;19.60;99.90;;;;;;5037830;28;20441;-79
2022/05/17 07:23:24;;;;;;;11.60;5.30;;;19.70;99.90;;;;;;5072670;28;21096;-80
2022/05/17 07:25:50;;;;;;;6.57;5.93;;;19.60;99.90;;;;;;5072563;28;20532;-80
2022/05/17 07:28:18;;;;;;;9.43;5.77;;;19.60;99.90;;;;;;5072544;28;20440;-80
2022/05/17 07:30:48;;;;;;;11.80;5.87;;;19.60;99.90;;;;;;5072463;28;20538;-80
2022/05/17 07:33:14;;;;;;;6.17;5.27;;;19.50;99.90;;;;;;5072333;28;20518;-80
2022/05/17 07:35:40;;;;;;;11.33;5.70;;;19.60;99.90;;;;;;5072670;28;20421;-79
2022/05/17 07:38:07;;;;;;;8.60;5.40;;;19.70;99.90;;;;;;5054222;28;20414;-79
2022/05/17 07:40:33;;;;;;;10.20;5.30;;;19.80;99.90;;;;;;5072715;28;20795;-79
2022/05/17 07:42:59;;;;;;;8.13;5.80;;;19.90;99.90;;;;;;5072386;28;20482;-80
2022/05/17 07:45:26;;;;;;;12.60;5.60;;;20.00;99.90;;;;;;5054953;28;20441;-80
2022/05/17 07:47:51;;;;;;;10.20;5.53;;;20.10;99.90;;;;;;5054863;28;20424;-80
2022/05/17 07:50:17;;;;;;;7.87;5.00;;;20.10;99.90;;;;;;5072905;28;20425;-80
2022/05/17 07:52:43;;;;;;;9.20;5.40;;;20.20;99.90;;;;;;5054405;28;20226;-79
2022/05/17 07:55:10;;;;;;;7.40;4.87;;;20.20;99.90;;;;;;5054766;28;20291;-80
2022/05/17 07:57:37;;;;;;;14.80;6.10;;;20.20;99.90;;;;;;5071831;28;20180;-79
2022/05/17 08:00:05;;;;;;;9.87;5.30;;;20.30;99.90;;;;;;5021110;28;20429;-80
2022/05/17 08:02:32;;;;;;;8.07;5.00;;;20.40;99.90;;;;;;5072324;28;20452;-80
2022/05/17 08:04:58;;;;;;;8.40;4.80;;;20.40;99.90;;;;;;5054174;28;20459;-80
2022/05/17 08:07:24;;;;;;;7.90;4.67;;;20.60;99.90;;;;;;5053973;28;20462;-80
2022/05/17 08:09:49;;;;;;;6.40;5.60;;;20.70;99.90;;;;;;5037751;28;20183;-80
2022/05/17 08:12:15;;;;;;;10.30;5.20;;;20.80;99.90;;;;;;5054429;28;20210;-80
2022/05/17 08:14:41;;;;;;;7.33;4.53;;;20.80;99.90;;;;;;5054346;28;20664;-80
2022/05/17 08:17:08;;;;;;;8.00;5.63;;;20.90;99.90;;;;;;5072355;28;20532;-80
2022/05/17 08:19:38;;;;;;;6.50;4.80;;;21.00;99.90;;;;;;5072246;28;20564;-80
2022/05/17 08:22:11;;;;;;;6.60;4.43;;;21.10;99.90;;;;;;5053984;28;20453;-79
2022/05/17 08:27:31;;;;;;;8.43;4.60;;;21.30;99.90;;;;;;5072046;28;20471;-80
2022/05/17 08:30:00;;;;;;;9.60;4.90;;;21.40;99.90;;;;;;5071655;28;20419;-80
2022/05/17 08:35:10;;;;;;;10.17;5.03;;;21.60;99.90;;;;;;5071719;28;20409;-80
2022/05/17 08:37:36;;;;;;;8.60;4.97;;;21.80;99.90;;;;;;5052610;28;20934;-79
2022/05/17 08:40:02;;;;;;;6.87;4.40;;;21.90;99.90;;;;;;5070736;28;20617;-80
2022/05/17 08:42:58;;;;;;;4.80;4.30;;;22.10;99.90;;;;;;5070449;28;20202;-80
2022/05/17 08:45:34;;;;;;;6.83;4.27;;;22.30;99.90;;;;;;5070194;28;20526;-80
2022/05/17 08:48:02;;;;;;;10.73;5.93;;;22.40;99.90;;;;;;5070349;28;20466;-80
2022/05/17 08:50:36;;;;;;;11.87;5.40;;;22.60;99.90;;;;;;5051938;28;20922;-80
2022/05/17 08:53:03;;;;;;;7.37;5.50;;;22.80;99.90;;;;;;5071316;28;20522;-80
2022/05/17 08:55:36;;;;;;;8.30;4.70;;;22.90;99.90;;;;;;5053533;28;20498;-80
2022/05/17 08:58:17;;;;;;;6.10;4.13;;;23.10;99.90;;;;;;5071500;28;20558;-80
2022/05/17 09:00:56;;;;;;;7.67;4.50;;;23.20;99.90;;;;;;5071250;28;20495;-80
2022/05/17 09:03:45;;;;;;;5.40;4.00;;;23.40;99.90;;;;;;5071460;28;20465;-80
2022/05/17 09:06:34;;;;;;;6.27;4.20;;;23.80;99.90;;;;;;5071696;28;20471;-80
2022/05/17 09:09:25;;;;;;;5.07;4.17;;;23.90;98.00;;;;;;5070981;28;20408;-80
2022/05/17 09:11:57;;;;;;;7.50;4.30;;;23.80;99.90;;;;;;5052575;28;20463;-80
2022/05/17 09:14:30;;;;;;;7.87;3.90;;;24.00;99.90;;;;;;5052858;28;20474;-80
2022/05/17 09:16:59;;;;;;;6.40;3.10;;;24.10;98.20;;;;;;5053384;28;21191;-80
2022/05/17 09:19:25;;;;;;;11.83;4.17;;;24.20;97.80;;;;;;5053417;28;20429;-80
2022/05/17 09:21:53;;;;;;;11.13;5.00;;;24.20;99.30;;;;;;5071061;28;20442;-80
2022/05/17 09:24:21;;;;;;;6.07;3.90;;;24.10;97.70;;;;;;5053788;28;20479;-80
2022/05/17 09:26:52;;;;;;;3.70;3.10;;;24.10;98.60;;;;;;5052983;28;20451;-80
2022/05/17 09:29:26;;;;;;;3.10;2.73;;;24.20;97.50;;;;;;5053459;28;21176;-81
2022/05/17 09:31:59;;;;;;;4.50;2.80;;;24.40;97.60;;;;;;5071237;28;20451;-80
2022/05/17 09:34:37;;;;;;;4.27;2.90;;;24.40;97.10;;;;;;5071032;28;20444;-80
2022/05/17 09:37:11;;;;;;;4.70;2.93;;;24.40;96.40;;;;;;5070941;28;21221;-80
2022/05/17 09:39:37;;;;;;;5.53;2.47;;;24.50;94.40;;;;;;5071246;28;20922;-80
2022/05/17 09:42:05;;;;;;;4.30;2.53;;;24.80;94.50;;;;;;5052717;28;20487;-80
2022/05/17 09:44:33;;;;;;;3.50;2.70;;;24.90;94.20;;;;;;5053129;28;20524;-81
2022/05/17 09:47:06;;;;;;;3.90;2.10;;;25.20;94.30;;;;;;5053057;28;20424;-80
2022/05/17 09:55:13;;;;;;;7.27;3.33;;;25.80;96.10;;;;;;5071049;28;20407;-80
2022/05/17 09:57:51;;;;;;;3.23;2.97;;;25.70;95.80;;;;;;5071081;28;20986;-80
2022/05/17 10:00:24;;;;;;;7.77;2.80;;;25.70;94.70;;;;;;5052595;28;20420;-80
2022/05/17 10:02:53;;;;;;;6.33;3.20;;;25.50;91.90;;;;;;5070557;28;20478;-81
2022/05/17 10:05:40;;;;;;;4.00;3.20;;;25.40;94.10;;;;;;5071045;28;20427;-81
2022/05/17 10:08:12;;;;;;;4.70;3.23;;;25.70;94.20;;;;;;5051559;28;20789;-80
2022/05/17 10:10:43;;;;;;;5.70;3.13;;;25.70;95.20;;;;;;5070384;28;20424;-81
2022/05/17 10:13:32;;;;;;;5.73;3.17;;;25.90;94.10;;;;;;5070880;28;20472;-81
2022/05/17 10:16:15;;;;;;;4.40;3.03;;;26.00;94.30;;;;;;5069935;28;20418;-80
2022/05/17 10:18:52;;;;;;;4.97;2.83;;;26.20;95.20;;;;;;5070404;28;20407;-80
2022/05/17 10:21:45;;;;;;;3.20;2.80;;;26.40;94.00;;;;;;5071289;28;21285;-80
2022/05/17 10:24:40;;;;;;;13.90;2.83;;;26.60;93.10;;;;;;5074507;28;20499;-80
2022/05/17 10:27:17;;;;;;;4.90;3.27;;;26.70;93.70;;;;;;5027509;28;20417;-80
2022/05/17 10:29:54;;;;;;;5.33;3.07;;;26.80;91.70;;;;;;5074419;28;20419;-80
2022/05/17 10:32:35;;;;;;;5.53;2.63;;;26.80;91.30;;;;;;5074342;28;20444;-81
2022/05/17 10:35:27;;;;;;;3.10;2.53;;;26.90;91.90;;;;;;5056177;28;20499;-80
2022/05/17 10:37:59;;;;;;;4.97;2.73;;;27.00;91.20;;;;;;5074247;28;20405;-80
2022/05/17 10:40:32;;;;;;;3.03;2.70;;;27.20;91.70;;;;;;5074728;28;20398;-80
2022/05/17 10:42:59;;;;;;;4.00;3.30;;;27.40;90.70;;;;;;5056032;28;20471;-81
2022/05/17 10:45:33;;;;;;;4.30;3.33;;;27.50;91.70;;;;;;5074528;28;20413;-80
2022/05/17 10:48:38;;;;;;;7.73;3.33;;;27.80;92.00;;;;;;5075129;28;20405;-80
2022/05/17 10:51:13;;;;;;;4.53;3.00;;;27.90;90.60;;;;;;5075074;28;20419;-81
2022/05/17 10:54:02;;;;;;;5.87;3.20;;;27.90;89.50;;;;;;5074817;28;20547;-80
2022/05/17 10:56:43;;;;;;;4.77;2.90;;;27.90;88.30;;;;;;5074333;28;20973;-80
2022/05/17 10:59:31;;;;;;;4.20;2.70;;;27.90;88.90;;;;;;5055547;28;20511;-80
2022/05/17 11:02:12;;;;;;;7.10;3.30;;;26.90;90.30;;;;;;5073459;28;20540;-81
2022/05/17 11:05:01;;;;;;;6.47;3.10;;;26.20;91.40;;;;;;5055665;28;20486;-81
2022/05/17 11:08:05;;;;;;;3.53;2.53;;;25.80;91.40;;;;;;5055272;28;20425;-81
2022/05/17 11:10:33;;;;;;;2.90;2.50;;;25.90;90.80;;;;;;5073041;28;20440;-81
2022/05/17 11:13:16;;;;;;;5.77;2.70;;;26.40;91.70;;;;;;5072869;28;20479;-81
2022/05/17 11:15:58;;;;;;;6.03;2.60;;;26.60;89.80;;;;;;5072498;28;20466;-80
2022/05/17 11:18:38;;;;;;;4.17;2.70;;;26.80;86.90;;;;;;5072939;28;20437;-81
2022/05/17 11:21:24;;;;;;;5.07;2.50;;;27.00;89.30;;;;;;5072861;28;20407;-81
2022/05/17 11:23:55;;;;;;;2.87;2.37;;;27.20;84.20;;;;;;5072624;28;20412;-81
2022/05/17 11:26:44;;;;;;;9.13;3.10;;;27.50;87.00;;;;;;5054784;28;20417;-81
2022/05/17 11:29:12;;;;;;;6.23;2.30;;;27.70;84.30;;;;;;5072654;28;20428;-80
2022/05/17 11:31:58;;;;;;;5.07;3.00;;;27.80;82.90;;;;;;5054425;28;20456;-81
2022/05/17 11:34:25;;;;;;;4.90;3.20;;;27.70;85.30;;;;;;5054879;28;20464;-81
2022/05/17 11:36:56;;;;;;;2.50;2.30;;;27.80;86.50;;;;;;5074884;28;20904;-81
2022/05/17 11:39:31;;;;;;;3.90;2.50;;;28.00;89.00;;;;;;5075022;28;20443;-80
2022/05/17 11:45:56;;;;;;;4.73;2.77;;;28.20;87.60;;;;;;5077822;28;20427;-80
2022/05/17 11:48:42;;;;;;;6.43;2.63;;;28.30;82.70;;;;;;5055622;28;20862;-81
2022/05/17 11:51:07;;;;;;;5.57;2.23;;;28.20;86.60;;;;;;5076071;28;20413;-80
2022/05/17 11:53:42;;;;;;;8.73;2.90;;;28.30;81.80;;;;;;5023981;28;20471;-80
2022/05/17 11:56:28;;;;;;;6.63;2.63;;;28.30;81.10;;;;;;5056848;28;20218;-80
2022/05/17 11:59:20;;;;;;;5.13;2.50;;;28.30;82.00;;;;;;5075081;28;20413;-80
2022/05/17 12:01:50;;;;;;;5.10;2.20;;;28.40;74.70;;;;;;5057165;28;20464;-81
2022/05/17 12:04:22;;;;;;;3.00;2.17;;;28.40;75.60;;;;;;5075303;28;20419;-81
2022/05/17 12:06:53;;;;;;;4.70;2.20;;;28.30;71.80;;;;;;5059806;28;20420;-80
2022/05/17 12:09:29;;;;;;;2.90;2.10;;;28.20;72.10;;;;;;5072818;28;20511;-81
2022/05/17 12:12:27;;;;;;;2.00;1.77;;;28.00;69.50;;;;;;5072725;28;20441;-80
2022/05/17 12:15:07;;;;;;;4.57;1.93;;;27.90;70.60;;;;;;5072710;28;20838;-80
2022/05/17 12:17:42;;;;;;;3.03;2.20;;;27.50;64.10;;;;;;5072537;28;20397;-80
2022/05/17 12:20:34;;;;;;;3.73;2.20;;;27.20;71.30;;;;;;5072338;28;20424;-80
2022/05/17 12:23:16;;;;;;;4.00;2.33;;;27.60;75.50;;;;;;5072385;28;21087;-81
2022/05/17 12:26:06;;;;;;;4.30;2.40;;;27.90;74.20;;;;;;5071890;28;20416;-80
2022/05/17 12:28:40;;;;;;;5.03;2.83;;;28.10;76.70;;;;;;5072021;28;20896;-81
2022/05/17 12:31:12;;;;;;;4.13;2.13;;;28.40;74.50;;;;;;5072131;28;20829;-81
2022/05/17 12:33:46;;;;;;;2.60;2.20;;;28.40;72.50;;;;;;5053253;28;20461;-80
2022/05/17 12:36:18;;;;;;;2.80;1.90;;;28.50;73.60;;;;;;5071832;28;20429;-81
2022/05/17 12:44:56;;;;;;;3.90;1.73;;;28.10;71.20;;;;;;5070937;28;21023;-81
2022/05/17 12:47:35;;;;;;;2.37;1.57;;;28.20;70.80;;;;;;5071405;28;21037;-81
2022/05/17 12:50:01;;;;;;;1.70;1.43;;;28.50;72.60;;;;;;5071492;28;20424;-81
2022/05/17 12:52:31;;;;;;;5.50;1.27;;;28.70;68.50;;;;;;5071535;28;20442;-81
2022/05/17 12:55:11;;;;;;;1.47;1.10;;;28.90;63.80;;;;;;5054442;28;20441;-81
2022/05/17 12:57:39;;;;;;;1.83;1.30;;;28.80;64.10;;;;;;5071792;28;20409;-80
2022/05/17 13:00:29;;;;;;;3.83;1.60;;;28.90;63.90;;;;;;5071997;28;20413;-80
2022/05/17 13:02:58;;;;;;;3.33;1.30;;;29.00;67.50;;;;;;5071455;28;20438;-81
2022/05/17 13:05:41;;;;;;;1.53;1.30;;;28.80;65.40;;;;;;5071432;28;20479;-81
2022/05/17 13:08:38;;;;;;;3.50;1.57;;;28.80;67.70;;;;;;5053891;28;20804;-81
2022/05/17 13:11:17;;;;;;;1.10;1.00;;;28.80;61.90;;;;;;5052061;28;20456;-81
2022/05/17 13:13:44;;;;;;;3.00;1.60;;;28.50;63.10;;;;;;5071813;28;20456;-80
2022/05/17 13:16:14;;;;;;;1.10;1.00;;;28.30;64.80;;;;;;5054262;28;20420;-79
2022/05/17 13:18:45;;;;;;;1.97;1.03;;;28.10;62.70;;;;;;5037798;28;20421;-81
2022/05/17 13:21:34;;;;;;;2.60;1.10;;;27.80;67.20;;;;;;5072357;28;20410;-80
2022/05/17 13:24:05;;;;;;;3.90;1.60;;;27.50;66.70;;;;;;5072199;28;20536;-80
2022/05/17 13:26:37;;;;;;;1.93;1.47;;;27.40;67.20;;;;;;5072067;28;20468;-81
2022/05/17 13:29:23;;;;;;;2.53;1.27;;;27.30;64.00;;;;;;5053570;28;20417;-81